createdAt,value
2023-04-16T00:00:55.956Z,21.56
2023-04-16T00:03:22.683Z,21.60
2023-04-16T00:05:49.544Z,21.56
2023-04-16T00:08:16.092Z,21.60
2023-04-16T00:10:42.643Z,21.63
2023-04-16T00:13:09.184Z,21.57
2023-04-16T00:15:35.738Z,21.60
2023-04-16T00:18:02.387Z,21.58
2023-04-16T00:20:29.033Z,21.52
2023-04-16T00:22:55.608Z,21.55
2023-04-16T00:25:22.185Z,21.45
2023-04-16T00:27:48.755Z,21.54
2023-04-16T00:30:15.319Z,21.53
2023-04-16T00:32:41.862Z,21.57
2023-04-16T00:35:08.451Z,21.52
2023-04-16T00:37:34.986Z,21.54
2023-04-16T00:40:01.536Z,21.51
2023-04-16T00:42:28.158Z,21.54
2023-04-16T00:44:54.708Z,21.50
2023-04-16T00:47:21.321Z,21.47
2023-04-16T00:49:47.901Z,21.51
2023-04-16T00:52:14.445Z,21.45
2023-04-16T00:54:41.016Z,21.49
2023-04-16T00:57:07.591Z,21.52
2023-04-16T00:59:34.183Z,21.46
2023-04-16T01:02:00.825Z,21.51
2023-04-16T01:04:27.481Z,21.48
2023-04-16T01:06:54.142Z,21.48
2023-04-16T01:09:20.702Z,21.51
2023-04-16T01:11:47.283Z,21.50
2023-04-16T01:14:13.842Z,21.48
2023-04-16T01:16:40.388Z,21.48
2023-04-16T01:19:06.930Z,21.50
2023-04-16T01:21:33.485Z,21.51
2023-04-16T01:24:00.063Z,21.55
2023-04-16T01:26:26.597Z,21.48
2023-04-16T01:28:53.151Z,21.48
2023-04-16T01:31:19.733Z,21.47
2023-04-16T01:33:46.300Z,21.48
2023-04-16T01:36:12.856Z,21.48
2023-04-16T01:38:39.407Z,21.42
2023-04-16T01:41:05.985Z,21.49
2023-04-16T01:43:32.542Z,21.46
2023-04-16T01:45:59.081Z,21.40
2023-04-16T01:48:25.637Z,21.46
2023-04-16T01:50:52.220Z,21.42
2023-04-16T01:53:18.752Z,21.45
2023-04-16T01:55:45.316Z,21.44
2023-04-16T01:58:11.866Z,21.41
2023-04-16T02:00:38.424Z,21.38
2023-04-16T02:03:05.106Z,21.44
2023-04-16T02:05:31.741Z,21.40
2023-04-16T02:07:58.309Z,21.43
2023-04-16T02:10:24.864Z,21.42
2023-04-16T02:12:51.437Z,21.38
2023-04-16T02:15:17.992Z,21.42
2023-04-16T02:17:44.571Z,21.37
2023-04-16T02:20:11.154Z,21.43
2023-04-16T02:22:37.699Z,21.48
2023-04-16T02:25:04.322Z,21.43
2023-04-16T02:27:30.904Z,21.46
2023-04-16T02:29:57.445Z,21.43
2023-04-16T02:32:24.046Z,21.43
2023-04-16T02:34:50.612Z,21.39
2023-04-16T02:37:17.174Z,21.42
2023-04-16T02:39:43.716Z,21.40
2023-04-16T02:42:10.271Z,21.37
2023-04-16T02:44:36.838Z,21.45
2023-04-16T02:47:03.391Z,21.42
2023-04-16T02:49:29.962Z,21.41
2023-04-16T02:51:56.500Z,21.42
2023-04-16T02:54:23.049Z,21.44
2023-04-16T02:56:49.604Z,21.36
2023-04-16T02:59:16.167Z,21.36
2023-04-16T03:01:42.762Z,21.37
2023-04-16T03:04:09.417Z,21.41
2023-04-16T03:06:36.035Z,21.36
2023-04-16T03:09:02.612Z,21.39
2023-04-16T03:11:29.200Z,21.40
2023-04-16T03:13:55.767Z,21.45
2023-04-16T03:16:22.434Z,21.37
2023-04-16T03:18:49.117Z,21.36
2023-04-16T03:21:15.727Z,21.36
2023-04-16T03:23:42.277Z,21.37
2023-04-16T03:26:08.823Z,21.35
2023-04-16T03:28:35.386Z,21.41
2023-04-16T03:31:01.949Z,21.32
2023-04-16T03:33:28.567Z,21.41
2023-04-16T03:35:55.169Z,21.40
2023-04-16T03:38:21.726Z,21.41
2023-04-16T03:40:48.280Z,21.41
2023-04-16T03:43:14.815Z,21.44
2023-04-16T03:45:41.391Z,21.39
2023-04-16T03:48:07.942Z,21.42
2023-04-16T03:50:34.544Z,21.40
2023-04-16T03:53:01.117Z,21.37
2023-04-16T03:55:27.671Z,21.37
2023-04-16T03:57:54.250Z,21.38
2023-04-16T04:00:20.792Z,21.38
2023-04-16T04:02:47.576Z,21.38
2023-04-16T04:05:14.336Z,21.38
2023-04-16T04:07:40.879Z,21.36
2023-04-16T04:10:07.440Z,21.36
2023-04-16T04:12:34.000Z,21.41
2023-04-16T04:15:00.542Z,21.41
2023-04-16T04:17:27.105Z,21.39
2023-04-16T04:20:00.999Z,21.40
2023-04-16T04:22:28.386Z,21.38
2023-04-16T04:24:54.928Z,21.45
2023-04-16T04:27:21.493Z,21.41
2023-04-16T04:29:48.037Z,21.42
2023-04-16T04:32:14.595Z,21.38
2023-04-16T04:34:41.164Z,21.39
2023-04-16T04:37:07.734Z,21.41
2023-04-16T04:39:34.294Z,21.36
2023-04-16T04:42:00.862Z,21.43
2023-04-16T04:44:27.405Z,21.43
2023-04-16T04:46:53.971Z,21.41
2023-04-16T04:49:20.515Z,21.44
2023-04-16T04:51:47.066Z,21.42
2023-04-16T04:54:13.611Z,21.42
2023-04-16T04:56:40.139Z,21.41
2023-04-16T04:59:06.689Z,21.48
2023-04-16T05:01:33.375Z,21.36
2023-04-16T05:04:00.022Z,21.40
2023-04-16T05:06:28.337Z,21.42
2023-04-16T05:08:56.065Z,21.40
2023-04-16T05:11:22.621Z,21.41
2023-04-16T05:13:51.929Z,21.39
2023-04-16T05:16:18.504Z,21.40
2023-04-16T05:18:45.135Z,21.36
2023-04-16T05:21:11.660Z,21.41
2023-04-16T05:23:38.352Z,21.36
2023-04-16T05:26:04.923Z,21.41
2023-04-16T05:28:31.470Z,21.46
2023-04-16T05:30:58.091Z,21.42
2023-04-16T05:33:24.643Z,21.44
2023-04-16T05:35:51.191Z,21.40
2023-04-16T05:38:17.729Z,21.34
2023-04-16T05:40:44.251Z,21.41
2023-04-16T05:43:10.797Z,21.43
2023-04-16T05:45:37.328Z,21.38
2023-04-16T05:48:03.867Z,21.42
2023-04-16T05:50:30.421Z,21.41
2023-04-16T05:52:56.955Z,21.38
2023-04-16T05:55:23.500Z,21.42
2023-04-16T05:57:50.039Z,21.40
2023-04-16T06:00:16.668Z,21.43
2023-04-16T06:02:43.340Z,21.40
2023-04-16T06:05:10.068Z,21.42
2023-04-16T06:07:36.663Z,21.37
2023-04-16T06:10:03.218Z,21.41
2023-04-16T06:12:29.753Z,21.38
2023-04-16T06:14:56.304Z,21.38
2023-04-16T06:17:22.954Z,21.43
2023-04-16T06:19:49.534Z,21.41
2023-04-16T06:22:16.072Z,21.47
2023-04-16T06:24:42.632Z,21.33
2023-04-16T06:27:09.185Z,21.38
2023-04-16T06:29:41.174Z,21.42
2023-04-16T06:32:08.513Z,21.44
2023-04-16T06:34:35.083Z,21.42
2023-04-16T06:37:01.657Z,21.47
2023-04-16T06:39:28.171Z,21.44
2023-04-16T06:41:54.719Z,21.45
2023-04-16T06:44:21.301Z,21.43
2023-04-16T06:46:47.901Z,21.47
2023-04-16T06:49:14.508Z,21.48
2023-04-16T06:51:41.039Z,21.46
2023-04-16T06:54:07.572Z,21.41
2023-04-16T06:56:34.130Z,21.48
2023-04-16T06:59:00.666Z,21.46
2023-04-16T07:01:27.323Z,21.47
2023-04-16T07:03:54.160Z,21.46
2023-04-16T07:06:20.872Z,21.48
2023-04-16T07:08:47.440Z,21.52
2023-04-16T07:11:14.002Z,21.50
2023-04-16T07:13:40.573Z,21.52
2023-04-16T07:16:07.129Z,21.48
2023-04-16T07:18:33.693Z,21.53
2023-04-16T07:21:00.220Z,21.57
2023-04-16T07:23:26.771Z,21.55
2023-04-16T07:25:53.392Z,21.50
2023-04-16T07:28:19.938Z,21.50
2023-04-16T07:30:46.510Z,21.58
2023-04-16T07:33:13.081Z,21.57
2023-04-16T07:35:39.654Z,21.56
2023-04-16T07:38:06.207Z,21.53
2023-04-16T07:40:32.756Z,21.53
2023-04-16T07:42:59.325Z,21.54
2023-04-16T07:45:25.930Z,21.53
2023-04-16T07:47:52.505Z,21.53
2023-04-16T07:50:19.088Z,21.53
2023-04-16T07:52:45.623Z,21.52
2023-04-16T07:55:12.181Z,21.58
2023-04-16T07:57:38.713Z,21.53
2023-04-16T08:00:05.249Z,21.55
2023-04-16T08:02:31.869Z,21.58
2023-04-16T08:04:58.602Z,21.58
2023-04-16T08:07:25.239Z,21.63
2023-04-16T08:09:51.811Z,21.61
2023-04-16T08:12:18.384Z,21.60
2023-04-16T08:14:44.936Z,21.61
2023-04-16T08:17:11.465Z,21.65
2023-04-16T08:19:38.005Z,21.56
2023-04-16T08:22:04.549Z,21.63
2023-04-16T08:24:31.076Z,21.64
2023-04-16T08:27:08.123Z,21.72
2023-04-16T08:29:41.906Z,21.68
2023-04-16T08:32:08.465Z,21.70
2023-04-16T08:34:35.010Z,21.71
2023-04-16T08:37:01.628Z,21.69
2023-04-16T08:39:28.345Z,21.71
2023-04-16T08:41:54.887Z,21.70
2023-04-16T08:44:21.455Z,21.71
2023-04-16T08:46:48.020Z,21.72
2023-04-16T08:49:14.575Z,21.64
2023-04-16T08:51:41.136Z,21.71
2023-04-16T08:54:07.864Z,21.70
2023-04-16T08:56:34.418Z,21.67
2023-04-16T08:59:00.983Z,21.70
2023-04-16T09:01:27.591Z,21.65
2023-04-16T09:03:54.320Z,21.66
2023-04-16T09:06:20.985Z,21.64
2023-04-16T09:08:47.545Z,21.66
2023-04-16T09:11:14.100Z,21.67
2023-04-16T09:13:40.652Z,21.69
2023-04-16T09:16:07.260Z,21.67
2023-04-16T09:18:33.788Z,21.73
2023-04-16T09:21:00.349Z,21.74
2023-04-16T09:23:26.893Z,21.75
2023-04-16T09:25:53.458Z,21.73
2023-04-16T09:28:20.015Z,21.73
2023-04-16T09:30:46.547Z,21.67
2023-04-16T09:33:13.120Z,21.70
2023-04-16T09:35:39.697Z,21.72
2023-04-16T09:38:06.233Z,21.73
2023-04-16T09:40:32.769Z,21.75
2023-04-16T09:42:59.312Z,21.74
2023-04-16T09:45:25.879Z,21.82
2023-04-16T09:47:52.489Z,21.73
2023-04-16T09:50:19.177Z,21.74
2023-04-16T09:52:45.726Z,21.76
2023-04-16T09:55:12.281Z,21.76
2023-04-16T09:57:38.844Z,21.75
2023-04-16T10:00:05.386Z,21.76
2023-04-16T10:02:32.008Z,21.74
2023-04-16T10:04:58.689Z,21.73
2023-04-16T10:07:25.276Z,21.77
2023-04-16T10:09:51.811Z,21.73
2023-04-16T10:12:18.354Z,21.73
2023-04-16T10:14:44.895Z,21.76
2023-04-16T10:17:11.481Z,21.77
2023-04-16T10:19:38.093Z,21.76
2023-04-16T10:22:04.649Z,21.77
2023-04-16T10:24:31.228Z,21.81
2023-04-16T10:26:57.760Z,21.87
2023-04-16T10:29:24.292Z,21.82
2023-04-16T10:31:50.854Z,21.86
2023-04-16T10:34:17.413Z,21.96
2023-04-16T10:36:43.975Z,21.99
2023-04-16T10:39:10.762Z,22.00
2023-04-16T10:41:37.485Z,22.04
2023-04-16T10:44:04.053Z,21.97
2023-04-16T10:46:30.695Z,21.93
2023-04-16T10:48:57.289Z,21.92
2023-04-16T10:51:23.831Z,21.96
2023-04-16T10:53:50.372Z,21.91
2023-04-16T10:56:16.914Z,21.98
2023-04-16T10:58:43.444Z,21.95
2023-04-16T11:01:10.087Z,21.98
2023-04-16T11:03:36.772Z,21.95
2023-04-16T11:06:03.420Z,21.98
2023-04-16T11:08:30.249Z,21.99
2023-04-16T11:10:56.869Z,22.05
2023-04-16T11:13:23.428Z,22.01
2023-04-16T11:15:50.004Z,22.04
2023-04-16T11:18:16.571Z,22.02
2023-04-16T11:20:43.129Z,22.08
2023-04-16T11:23:09.683Z,22.06
2023-04-16T11:25:36.219Z,22.06
2023-04-16T11:28:02.766Z,22.03
2023-04-16T11:30:29.288Z,22.10
2023-04-16T11:32:55.862Z,22.08
2023-04-16T11:35:22.454Z,22.06
2023-04-16T11:37:49.043Z,22.06
2023-04-16T11:40:15.637Z,22.05
2023-04-16T11:42:42.294Z,22.11
2023-04-16T11:45:08.885Z,22.07
2023-04-16T11:47:35.530Z,22.19
2023-04-16T11:50:02.141Z,22.12
2023-04-16T11:52:28.708Z,22.03
2023-04-16T11:54:55.240Z,22.04
2023-04-16T11:57:21.778Z,22.07
2023-04-16T12:00:02.610Z,22.07
2023-04-16T12:02:29.896Z,22.06
2023-04-16T12:04:56.569Z,22.07
2023-04-16T12:07:23.170Z,22.05
2023-04-16T12:09:49.728Z,22.08
2023-04-16T12:12:16.272Z,22.03
2023-04-16T12:14:42.827Z,22.08
2023-04-16T12:17:09.452Z,22.01
2023-04-16T12:19:36.204Z,22.03
2023-04-16T12:22:02.756Z,22.04
2023-04-16T12:24:29.291Z,22.08
2023-04-16T12:26:55.834Z,22.09
2023-04-16T12:29:22.395Z,22.08
2023-04-16T12:31:48.956Z,22.10
2023-04-16T12:34:15.529Z,22.09
2023-04-16T12:36:42.107Z,22.05
2023-04-16T12:39:08.803Z,22.07
2023-04-16T12:41:35.500Z,22.12
2023-04-16T12:44:02.106Z,22.10
2023-04-16T12:46:28.736Z,22.14
2023-04-16T12:48:55.293Z,22.14
2023-04-16T12:51:21.839Z,22.08
2023-04-16T12:53:48.442Z,22.07
2023-04-16T12:56:14.983Z,22.12
2023-04-16T12:58:41.543Z,22.14
2023-04-16T13:01:08.142Z,22.14
2023-04-16T13:03:34.864Z,22.06
2023-04-16T13:06:01.546Z,22.08
2023-04-16T13:08:28.120Z,22.07
2023-04-16T13:10:54.675Z,22.11
2023-04-16T13:13:21.232Z,22.01
2023-04-16T13:15:47.845Z,22.15
2023-04-16T13:18:14.424Z,22.13
2023-04-16T13:20:40.972Z,22.08
2023-04-16T13:23:07.518Z,22.07
2023-04-16T13:25:34.164Z,22.16
2023-04-16T13:28:00.719Z,22.11
2023-04-16T13:30:27.255Z,22.06
2023-04-16T13:32:53.851Z,22.06
2023-04-16T13:35:20.452Z,22.06
2023-04-16T13:37:47.030Z,22.09
2023-04-16T13:40:13.552Z,22.03
2023-04-16T13:42:40.090Z,22.08
2023-04-16T13:45:06.659Z,22.02
2023-04-16T13:47:33.246Z,22.01
2023-04-16T13:49:59.782Z,22.06
2023-04-16T13:52:26.315Z,22.07
2023-04-16T13:54:52.839Z,22.05
2023-04-16T13:57:19.383Z,22.03
2023-04-16T13:59:45.949Z,22.02
2023-04-16T14:02:12.545Z,22.04
2023-04-16T14:04:39.136Z,22.06
2023-04-16T14:07:05.688Z,22.02
2023-04-16T14:09:32.259Z,22.05
2023-04-16T14:11:58.816Z,22.08
2023-04-16T14:14:25.353Z,22.06
2023-04-16T14:16:51.880Z,22.08
2023-04-16T14:19:18.428Z,22.04
2023-04-16T14:21:45.005Z,22.02
2023-04-16T14:24:11.557Z,22.01
2023-04-16T14:26:38.093Z,21.99
2023-04-16T14:29:04.628Z,21.99
2023-04-16T14:31:31.187Z,21.99
2023-04-16T14:33:57.826Z,21.96
2023-04-16T14:36:24.368Z,21.98
2023-04-16T14:38:50.921Z,22.02
2023-04-16T14:41:17.469Z,21.99
2023-04-16T14:43:44.061Z,22.03
2023-04-16T14:46:10.667Z,22.06
2023-04-16T14:48:37.250Z,22.04
2023-04-16T14:51:03.785Z,22.06
2023-04-16T14:53:30.330Z,22.10
2023-04-16T14:55:56.881Z,22.07
2023-04-16T14:58:23.414Z,22.05
2023-04-16T15:00:49.978Z,22.07
2023-04-16T15:03:16.665Z,22.07
2023-04-16T15:05:43.290Z,22.01
2023-04-16T15:08:09.845Z,22.04
2023-04-16T15:10:36.386Z,21.97
2023-04-16T15:13:02.951Z,21.98
2023-04-16T15:15:29.489Z,22.02
2023-04-16T15:17:56.043Z,22.03
2023-04-16T15:20:22.617Z,22.01
2023-04-16T15:22:49.167Z,21.98
2023-04-16T15:25:15.721Z,21.95
2023-04-16T15:27:42.303Z,21.98
2023-04-16T15:30:08.847Z,21.96
2023-04-16T15:32:35.435Z,21.95
2023-04-16T15:35:02.008Z,21.91
2023-04-16T15:37:28.563Z,21.97
2023-04-16T15:39:55.108Z,21.98
2023-04-16T15:42:21.634Z,21.95
2023-04-16T15:44:48.172Z,21.97
2023-04-16T15:47:14.703Z,21.97
2023-04-16T15:49:41.244Z,21.95
2023-04-16T15:52:07.780Z,22.04
2023-04-16T15:54:34.348Z,21.96
2023-04-16T15:57:00.900Z,21.95
2023-04-16T15:59:27.505Z,21.99
2023-04-16T16:01:54.183Z,21.99
2023-04-16T16:04:20.949Z,22.00
2023-04-16T16:06:47.536Z,22.00
2023-04-16T16:09:14.085Z,21.96
2023-04-16T16:11:40.621Z,22.00
2023-04-16T16:14:07.157Z,21.93
2023-04-16T16:16:33.771Z,21.96
2023-04-16T16:19:00.324Z,21.92
2023-04-16T16:21:26.874Z,21.94
2023-04-16T16:23:53.436Z,21.95
2023-04-16T16:26:19.981Z,21.94
2023-04-16T16:28:46.529Z,21.95
2023-04-16T16:31:13.117Z,21.93
2023-04-16T16:33:40.671Z,21.94
2023-04-16T16:36:07.415Z,21.97
2023-04-16T16:38:33.958Z,21.96
2023-04-16T16:41:00.504Z,21.94
2023-04-16T16:43:27.040Z,22.02
2023-04-16T16:45:53.587Z,21.97
2023-04-16T16:48:20.141Z,22.00
2023-04-16T16:50:46.698Z,21.98
2023-04-16T16:53:13.311Z,22.03
2023-04-16T16:55:39.872Z,22.21
2023-04-16T16:58:06.421Z,22.24
2023-04-16T17:00:33.039Z,22.35
2023-04-16T17:02:59.792Z,22.39
2023-04-16T17:05:26.509Z,22.38
2023-04-16T17:07:53.082Z,22.22
2023-04-16T17:10:19.616Z,22.23
2023-04-16T17:12:46.164Z,22.23
2023-04-16T17:15:12.730Z,22.23
2023-04-16T17:17:39.338Z,22.17
2023-04-16T17:20:05.896Z,22.16
2023-04-16T17:22:32.434Z,22.12
2023-04-16T17:24:58.989Z,22.22
2023-04-16T17:27:25.555Z,22.15
2023-04-16T17:29:52.109Z,22.26
2023-04-16T17:32:18.768Z,22.15
2023-04-16T17:34:45.379Z,22.07
2023-04-16T17:37:11.936Z,22.10
2023-04-16T17:39:38.513Z,22.11
2023-04-16T17:42:05.086Z,22.12
2023-04-16T17:44:31.632Z,22.19
2023-04-16T17:46:58.174Z,22.14
2023-04-16T17:49:24.727Z,22.20
2023-04-16T17:51:51.253Z,22.23
2023-04-16T17:54:17.801Z,22.19
2023-04-16T17:56:44.359Z,22.19
2023-04-16T17:59:10.923Z,22.22
2023-04-16T18:01:37.519Z,22.23
2023-04-16T18:04:04.329Z,22.15
2023-04-16T18:06:30.981Z,22.12
2023-04-16T18:08:57.580Z,22.10
2023-04-16T18:11:24.140Z,22.10
2023-04-16T18:13:50.664Z,22.15
2023-04-16T18:16:17.253Z,22.15
2023-04-16T18:18:43.865Z,22.17
2023-04-16T18:21:10.412Z,22.17
2023-04-16T18:23:36.974Z,22.11
2023-04-16T18:26:03.525Z,22.12
2023-04-16T18:28:30.084Z,22.21
2023-04-16T18:30:58.996Z,22.24
2023-04-16T18:33:52.713Z,22.20
2023-04-16T18:36:12.396Z,22.27
2023-04-16T18:38:49.388Z,22.34
2023-04-16T18:41:23.951Z,22.28
2023-04-16T18:43:50.559Z,22.22
2023-04-16T18:46:17.131Z,22.15
2023-04-16T18:48:43.686Z,22.17
2023-04-16T18:51:10.263Z,22.21
2023-04-16T18:53:36.792Z,22.19
2023-04-16T18:56:03.367Z,22.23
2023-04-16T18:58:29.914Z,22.18
2023-04-16T19:00:56.516Z,22.20
2023-04-16T19:03:23.115Z,22.16
2023-04-16T19:05:49.774Z,22.18
2023-04-16T19:08:16.321Z,22.15
2023-04-16T19:10:42.892Z,22.09
2023-04-16T19:13:09.434Z,22.15
2023-04-16T19:15:35.971Z,22.20
2023-04-16T19:18:02.619Z,22.15
2023-04-16T19:20:29.200Z,22.17
2023-04-16T19:22:55.752Z,22.17
2023-04-16T19:25:22.309Z,22.20
2023-04-16T19:27:48.876Z,22.15
2023-04-16T19:30:15.429Z,22.18
2023-04-16T19:32:41.986Z,22.16
2023-04-16T19:35:08.578Z,22.16
2023-04-16T19:37:35.142Z,22.16
2023-04-16T19:40:01.704Z,22.12
2023-04-16T19:42:28.268Z,22.14
2023-04-16T19:44:54.901Z,22.10
2023-04-16T19:47:21.453Z,22.15
2023-04-16T19:49:47.994Z,22.21
2023-04-16T19:52:14.516Z,22.17
2023-04-16T19:54:41.061Z,22.15
2023-04-16T19:57:07.629Z,22.15
2023-04-16T19:59:34.213Z,22.18
2023-04-16T20:02:00.874Z,22.23
2023-04-16T20:04:27.541Z,22.15
2023-04-16T20:06:54.139Z,22.16
2023-04-16T20:09:20.686Z,22.16
2023-04-16T20:11:47.228Z,22.12
2023-04-16T20:14:13.783Z,22.13
2023-04-16T20:16:40.362Z,22.10
2023-04-16T20:19:08.681Z,22.10
2023-04-16T20:21:35.700Z,22.09
2023-04-16T20:24:02.233Z,22.14
2023-04-16T20:26:28.782Z,22.16
2023-04-16T20:28:55.328Z,22.14
2023-04-16T20:31:21.914Z,22.15
2023-04-16T20:33:48.510Z,22.12
2023-04-16T20:36:15.074Z,22.14
2023-04-16T20:38:41.606Z,22.14
2023-04-16T20:41:08.137Z,22.15
2023-04-16T20:43:34.690Z,22.17
2023-04-16T20:46:01.301Z,22.12
2023-04-16T20:48:27.843Z,22.08
2023-04-16T20:50:54.366Z,22.07
2023-04-16T20:53:20.889Z,22.04
2023-04-16T20:55:47.449Z,21.98
2023-04-16T20:58:13.994Z,22.00
2023-04-16T21:00:40.533Z,22.01
2023-04-16T21:03:07.163Z,22.03
2023-04-16T21:05:33.944Z,21.95
2023-04-16T21:08:00.478Z,21.99
2023-04-16T21:10:26.999Z,21.98
2023-04-16T21:12:53.530Z,21.94
2023-04-16T21:15:20.084Z,21.94
2023-04-16T21:17:46.678Z,21.94
2023-04-16T21:20:13.260Z,21.94
2023-04-16T21:22:39.802Z,21.94
2023-04-16T21:25:06.353Z,21.94
2023-04-16T21:27:32.910Z,21.95
2023-04-16T21:29:59.448Z,21.93
2023-04-16T21:32:26.048Z,21.92
2023-04-16T21:34:52.629Z,21.95
2023-04-16T21:37:19.177Z,21.96
2023-04-16T21:39:45.713Z,21.90
2023-04-16T21:42:12.253Z,21.96
2023-04-16T21:44:38.833Z,21.94
2023-04-16T21:47:05.424Z,21.93
2023-04-16T21:49:32.016Z,21.97
2023-04-16T21:51:58.566Z,21.88
2023-04-16T21:54:25.111Z,21.90
2023-04-16T21:56:51.668Z,21.96
2023-04-16T21:59:18.228Z,21.91
2023-04-16T22:01:44.818Z,21.95
2023-04-16T22:04:11.426Z,21.94
2023-04-16T22:06:38.021Z,21.91
2023-04-16T22:09:04.576Z,21.88
2023-04-16T22:11:31.129Z,21.91
2023-04-16T22:13:57.780Z,21.90
2023-04-16T22:16:24.463Z,21.89
2023-04-16T22:18:51.023Z,21.83
2023-04-16T22:21:17.582Z,21.89
2023-04-16T22:23:44.117Z,21.87
2023-04-16T22:26:10.695Z,21.89
2023-04-16T22:28:37.242Z,21.92
2023-04-16T22:31:03.798Z,21.86
2023-04-16T22:33:30.356Z,21.82
2023-04-16T22:35:56.925Z,21.89
2023-04-16T22:38:23.465Z,21.89
2023-04-16T22:40:50.004Z,21.84
2023-04-16T22:43:16.567Z,21.83
2023-04-16T22:45:43.129Z,21.85
2023-04-16T22:48:09.775Z,21.94
2023-04-16T22:50:36.392Z,21.81
2023-04-16T22:53:02.942Z,21.84
2023-04-16T22:55:29.491Z,21.89
2023-04-16T22:57:56.036Z,21.85
2023-04-16T23:00:22.576Z,21.87
2023-04-16T23:05:15.912Z,21.82
2023-04-16T23:07:42.471Z,21.85
2023-04-16T23:10:09.072Z,21.79
2023-04-16T23:12:35.670Z,21.79
2023-04-16T23:15:02.230Z,21.80
2023-04-16T23:17:28.788Z,21.80
2023-04-16T23:19:55.366Z,21.80
2023-04-16T23:22:21.902Z,21.78
2023-04-16T23:24:48.446Z,21.85
2023-04-16T23:27:14.999Z,21.87
2023-04-16T23:29:41.550Z,21.88
2023-04-16T23:32:08.094Z,21.82
2023-04-16T23:37:01.235Z,21.71
2023-04-16T23:39:27.781Z,21.75
2023-04-16T23:41:54.339Z,21.72
2023-04-16T23:44:20.877Z,21.73
2023-04-16T23:46:47.468Z,21.81
2023-04-16T23:49:14.072Z,21.83
2023-04-16T23:51:40.624Z,21.79
2023-04-16T23:54:07.174Z,21.77
2023-04-16T23:56:33.741Z,21.76
2023-04-16T23:59:00.302Z,21.74
